Time;durP1;ratioP1;P1;durP2;ratioP2;P2;SDS_P1;SDS_P2;PMS_P1;PMS_P2;Temp;Humidity;BMP_temperature;BMP_pressure;BME280_temperature;BME280_humidity;BME280_pressure;Samples;Min_cycle;Max_cycle;Signal;HPM_P1;HPM_P2
2023/03/01 00:03:12;;;;;;;;;;;;;;;-1.80;81.19;103054.34;10379571;28;20372;-63
2023/03/01 00:08:14;;;;;;;;;;;;;;;-1.80;82.45;103055.22;10378685;28;20355;-63
2023/03/01 00:13:17;;;;;;;;;;;;;;;-1.71;82.25;103062.34;10380059;28;19925;-63
2023/03/01 00:18:19;;;;;;;;;;;;;;;-1.99;82.95;103060.63;10419997;28;20406;-63
2023/03/01 00:23:21;;;;;;;;;;;;;;;-1.83;83.42;103062.84;10402312;28;20276;-63
2023/03/01 00:28:24;;;;;;;;;;;;;;;-2.02;82.60;103051.13;10402124;28;19925;-63
2023/03/01 00:33:26;;;;;;;;;;;;;;;-1.77;84.14;103044.16;10402271;28;20044;-63
2023/03/01 00:38:28;;;;;;;;;;;;;;;-1.93;83.57;103037.72;10419746;28;19936;-64
2023/03/01 00:43:30;;;;;;;;;;;;;;;-1.88;84.68;103031.03;10418987;28;19932;-63
2023/03/01 00:48:33;;;;;;;;;;;;;;;-1.82;84.08;103028.59;10418884;28;19929;-63
2023/03/01 00:53:35;;;;;;;;;;;;;;;-2.12;84.21;103021.75;10401729;28;19925;-63
2023/03/01 00:58:38;;;;;;;;;;;;;;;-2.13;83.25;103029.41;10401209;28;19937;-63
2023/03/01 01:03:40;;;;;;;;;;;;;;;-2.12;84.55;103018.28;10418885;28;19979;-62
2023/03/01 01:08:42;;;;;;;;;;;;;;;-1.85;84.87;103018.25;10418739;28;19932;-63
2023/03/01 01:13:45;;;;;;;;;;;;;;;-2.21;84.88;103010.31;10418462;28;19979;-63
2023/03/01 01:18:47;;;;;;;;;;;;;;;-2.30;85.26;103000.66;10417620;28;19925;-63
2023/03/01 01:23:49;;;;;;;;;;;;;;;-2.08;85.65;102994.47;10418035;28;19975;-63
2023/03/01 01:28:52;;;;;;;;;;;;;;;-2.36;86.67;102995.31;10400555;28;20040;-75
2023/03/01 01:33:55;;;;;;;;;;;;;;;-2.36;85.02;102990.19;10400355;28;19925;-75
2023/03/01 01:38:57;;;;;;;;;;;;;;;-2.26;86.12;102985.38;10400111;28;19925;-75
2023/03/01 01:44:10;;;;;;;;;;;;;;;-2.29;86.76;102972.44;10399850;28;19975;-75
2023/03/01 01:49:12;;;;;;;;;;;;;;;-2.50;86.36;102972.66;10399303;28;19929;-69
2023/03/01 01:54:16;;;;;;;;;;;;;;;-2.43;86.08;102968.59;10416438;28;19929;-69
2023/03/01 01:59:18;;;;;;;;;;;;;;;-2.44;85.94;102980.56;10399057;28;19936;-69
2023/03/01 02:04:20;;;;;;;;;;;;;;;-2.53;87.98;102981.94;10416216;28;19975;-69
2023/03/01 02:09:23;;;;;;;;;;;;;;;-2.64;87.88;102986.72;10398419;28;19925;-69
2023/03/01 02:14:26;;;;;;;;;;;;;;;-2.74;89.17;102985.56;10399023;28;19925;-69
2023/03/01 02:19:31;;;;;;;;;;;;;;;-2.64;88.85;102979.91;10416146;28;19933;-69
2023/03/01 02:24:40;;;;;;;;;;;;;;;-2.55;89.14;102986.16;10397863;28;19925;-69
2023/03/01 02:29:43;;;;;;;;;;;;;;;-2.83;87.56;102980.97;10415466;28;19925;-69
2023/03/01 02:34:45;;;;;;;;;;;;;;;-2.48;88.14;102968.44;10416052;28;19925;-70
2023/03/01 02:39:48;;;;;;;;;;;;;;;-2.35;86.83;102972.25;10415844;28;19929;-69
2023/03/01 02:44:50;;;;;;;;;;;;;;;-2.56;88.13;102971.59;10397905;28;19932;-69
2023/03/01 02:49:53;;;;;;;;;;;;;;;-2.60;88.93;102960.38;10415737;28;19926;-69
2023/03/01 02:55:08;;;;;;;;;;;;;;;-2.65;86.83;102964.47;10398187;28;19925;-69
2023/03/01 03:00:21;;;;;;;;;;;;;;;-2.38;86.61;102967.03;10414580;28;19991;-69
2023/03/01 03:05:24;;;;;;;;;;;;;;;-2.62;86.54;102957.75;10398298;28;19925;-69
2023/03/01 03:10:28;;;;;;;;;;;;;;;-2.68;87.03;102951.56;10414682;28;20288;-69
2023/03/01 03:15:31;;;;;;;;;;;;;;;-2.54;87.33;102958.00;10398390;28;19933;-69
2023/03/01 03:20:33;;;;;;;;;;;;;;;-2.73;87.32;102953.97;10422898;28;19925;-69
2023/03/01 03:25:37;;;;;;;;;;;;;;;-2.75;88.57;102950.47;10422733;28;19929;-69
2023/03/01 03:30:40;;;;;;;;;;;;;;;-2.80;88.36;102957.16;10422564;28;19929;-69
2023/03/01 03:35:44;;;;;;;;;;;;;;;-3.10;88.56;102951.88;10421726;28;19925;-69
2023/03/01 03:40:47;;;;;;;;;;;;;;;-2.99;88.23;102955.69;10422136;28;19928;-63
2023/03/01 03:45:50;;;;;;;;;;;;;;;-2.83;89.34;102951.91;10403801;28;20338;-63
2023/03/01 03:50:53;;;;;;;;;;;;;;;-2.84;90.25;102945.03;10421789;28;19971;-63
2023/03/01 03:55:56;;;;;;;;;;;;;;;-3.11;89.52;102942.44;10403285;28;20388;-63
2023/03/01 04:00:58;;;;;;;;;;;;;;;-2.95;89.86;102936.16;10420326;28;20307;-63
2023/03/01 04:06:00;;;;;;;;;;;;;;;-2.91;91.59;102943.97;10420957;28;19925;-63
2023/03/01 04:11:25;;;;;;;;;;;;;;;-3.08;90.73;102940.84;10419875;28;19928;-63
2023/03/01 04:16:25;;;;;;;;;;;;;;;-3.24;91.23;102936.03;10420240;28;19979;-73
2023/03/01 04:21:27;;;;;;;;;;;;;;;-3.11;90.68;102927.06;10420501;28;19932;-73
2023/03/01 04:26:30;;;;;;;;;;;;;;;-3.37;92.31;102929.63;10419487;28;19925;-74
2023/03/01 04:31:32;;;;;;;;;;;;;;;-3.48;90.33;102910.44;10420189;28;20008;-73
2023/03/01 04:36:35;;;;;;;;;;;;;;;-3.36;91.16;102909.19;10419527;28;20023;-65
2023/03/01 04:41:43;;;;;;;;;;;;;;;-3.25;92.04;102916.34;10419776;28;19936;-64
2023/03/01 04:46:45;;;;;;;;;;;;;;;-3.17;89.50;102912.38;10419019;28;20269;-64
2023/03/01 04:51:47;;;;;;;;;;;;;;;-3.59;91.53;102917.75;10418840;28;20368;-64
2023/03/01 04:56:49;;;;;;;;;;;;;;;-3.29;91.77;102910.25;10419242;28;19925;-65
2023/03/01 05:01:52;;;;;;;;;;;;;;;-3.34;92.08;102903.25;10418184;28;19975;-64
2023/03/01 05:06:54;;;;;;;;;;;;;;;-3.52;93.04;102899.22;10418716;28;19940;-64
2023/03/01 05:11:56;;;;;;;;;;;;;;;-3.60;91.65;102890.41;10418536;28;19925;-64
2023/03/01 05:17:03;;;;;;;;;;;;;;;-3.55;93.65;102882.06;10417905;28;19929;-74
2023/03/01 05:22:05;;;;;;;;;;;;;;;-3.54;93.68;102867.56;10417706;28;20359;-73
2023/03/01 05:27:08;;;;;;;;;;;;;;;-3.32;93.68;102860.63;10418070;28;19925;-73
2023/03/01 05:32:15;;;;;;;;;;;;;;;-3.54;92.59;102862.44;10417815;28;19933;-73
2023/03/01 05:37:17;;;;;;;;;;;;;;;-3.56;93.15;102858.97;10417698;28;19932;-72
2023/03/01 05:42:19;;;;;;;;;;;;;;;-3.61;93.21;102852.84;10416562;28;19925;-73
2023/03/01 05:47:22;;;;;;;;;;;;;;;-3.68;93.01;102858.53;10416701;28;19926;-73
2023/03/01 05:52:24;;;;;;;;;;;;;;;-3.49;93.12;102853.22;10417082;28;19925;-73
2023/03/01 05:57:27;;;;;;;;;;;;;;;-3.47;93.41;102859.28;10416435;28;19925;-64
2023/03/01 06:02:32;;;;;;;;;;;;;;;-3.55;93.66;102864.16;10416219;28;19932;-64
2023/03/01 06:07:34;;;;;;;;;;;;;;;-3.78;94.58;102870.16;10416098;28;20372;-64
2023/03/01 06:12:37;;;;;;;;;;;;;;;-3.70;94.12;102867.84;10415857;28;20284;-64
2023/03/01 06:17:40;;;;;;;;;;;;;;;-3.62;94.84;102869.00;10415821;28;19979;-64
2023/03/01 06:22:43;;;;;;;;;;;;;;;-3.71;94.44;102869.56;10398898;28;19925;-71
2023/03/01 06:27:45;;;;;;;;;;;;;;;-3.75;93.98;102862.56;10415653;28;19932;-71
2023/03/01 06:32:48;;;;;;;;;;;;;;;-3.45;94.49;102859.31;10415466;28;20284;-70
2023/03/01 06:37:50;;;;;;;;;;;;;;;-3.35;94.42;102861.38;10397991;28;20299;-71
2023/03/01 06:42:52;;;;;;;;;;;;;;;-3.27;92.88;102861.63;10415304;28;19980;-71
2023/03/01 06:48:01;;;;;;;;;;;;;;;-3.25;93.37;102857.44;10415819;28;19979;-71
2023/03/01 06:53:03;;;;;;;;;;;;;;;-3.17;95.35;102856.84;10404108;28;20376;-71
2023/03/01 06:58:05;;;;;;;;;;;;;;;-3.11;93.31;102863.00;10423990;28;19933;-70
2023/03/01 07:03:07;;;;;;;;;;;;;;;-3.07;93.94;102852.03;10423027;28;19995;-71
2023/03/01 07:08:10;;;;;;;;;;;;;;;-2.84;92.74;102847.63;10405382;28;20402;-71
2023/03/01 07:13:12;;;;;;;;;;;;;;;-2.77;91.66;102857.25;10422534;28;19929;-71
2023/03/01 07:18:14;;;;;;;;;;;;;;;-2.74;92.02;102859.03;10422336;28;20379;-71
2023/03/01 07:23:16;;;;;;;;;;;;;;;-2.08;90.43;102848.16;10423001;28;19975;-71
2023/03/01 07:28:19;;;;;;;;;;;;;;;-1.98;89.75;102849.28;10422132;28;20265;-71
2023/03/01 07:33:21;;;;;;;;;;;;;;;-1.02;86.54;102857.72;10421869;28;20373;-71
2023/03/01 07:38:23;;;;;;;;;;;;;;;-0.97;84.91;102863.84;10404927;28;19925;-71
2023/03/01 07:43:26;;;;;;;;;;;;;;;-0.48;83.18;102864.09;10421569;28;20331;-71
2023/03/01 07:48:28;;;;;;;;;;;;;;;0.09;80.43;102850.66;10421437;28;19929;-71
2023/03/01 07:53:31;;;;;;;;;;;;;;;0.43;79.65;102848.69;10404223;28;19954;-71
2023/03/01 07:58:34;;;;;;;;;;;;;;;0.74;79.44;102850.09;10421436;28;19937;-71
2023/03/01 08:03:36;;;;;;;;;;;;;;;1.13;78.44;102861.00;10420677;28;19972;-71
2023/03/01 08:08:38;;;;;;;;;;;;;;;1.56;78.67;102865.91;10419085;28;19933;-71
2023/03/01 08:13:41;;;;;;;;;;;;;;;2.13;75.19;102859.69;10411513;28;20376;-71
2023/03/01 08:18:43;;;;;;;;;;;;;;;1.87;74.20;102856.84;10398286;28;19925;-71
2023/03/01 08:23:46;;;;;;;;;;;;;;;2.37;72.96;102858.22;10419755;28;20292;-72
2023/03/01 08:28:48;;;;;;;;;;;;;;;2.35;72.59;102855.63;10418638;28;19933;-71
2023/03/01 08:33:55;;;;;;;;;;;;;;;3.66;73.83;102848.78;10419994;28;19925;-71
2023/03/01 08:38:57;;;;;;;;;;;;;;;4.45;70.58;102843.81;10402240;28;19925;-72
2023/03/01 08:43:59;;;;;;;;;;;;;;;5.48;69.29;102830.72;10400058;28;19932;-71
2023/03/01 08:49:06;;;;;;;;;;;;;;;6.45;66.92;102826.72;10418488;28;19929;-72
2023/03/01 08:54:12;;;;;;;;;;;;;;;6.54;64.95;102820.59;10398583;28;19936;-71
2023/03/01 08:59:15;;;;;;;;;;;;;;;7.38;63.08;102821.50;10396787;28;19984;-72
2023/03/01 09:04:17;;;;;;;;;;;;;;;6.93;61.33;102821.97;10399891;28;19925;-71
2023/03/01 09:09:20;;;;;;;;;;;;;;;7.19;60.45;102818.25;10416706;28;20347;-77
2023/03/01 09:14:22;;;;;;;;;;;;;;;9.10;57.48;102805.00;10417740;28;19961;-77
2023/03/01 09:19:24;;;;;;;;;;;;;;;9.78;55.89;102806.22;10416729;28;19925;-77
2023/03/01 09:24:28;;;;;;;;;;;;;;;9.16;55.28;102809.22;10417185;28;19929;-77
2023/03/01 09:29:30;;;;;;;;;;;;;;;9.49;54.00;102800.72;10415544;28;19971;-77
2023/03/01 09:35:00;;;;;;;;;;;;;;;10.54;52.27;102797.47;10416035;28;19971;-77
2023/03/01 09:39:55;;;;;;;;;;;;;;;11.40;49.97;102781.16;10393422;28;19932;-77
2023/03/01 09:45:04;;;;;;;;;;;;;;;11.50;50.01;102778.25;10380147;28;20351;-76
2023/03/01 09:50:11;;;;;;;;;;;;;;;12.87;47.82;102766.84;10357190;28;20075;-76
2023/03/01 09:55:14;;;;;;;;;;;;;;;11.21;47.27;102765.13;10368005;28;19929;-75
2023/03/01 10:00:25;;;;;;;;;;;;;;;12.26;45.06;102761.03;10354515;28;20193;-75
2023/03/01 10:05:40;;;;;;;;;;;;;;;8.89;47.46;102759.22;10381934;28;20015;-75
2023/03/01 10:10:46;;;;;;;;;;;;;;;11.68;44.47;102752.34;10413935;28;19932;-75
2023/03/01 10:15:57;;;;;;;;;;;;;;;12.93;41.95;102737.72;10396799;28;21259;-75
2023/03/01 10:21:00;;;;;;;;;;;;;;;13.07;40.84;102731.94;10396451;28;20430;-74
2023/03/01 10:26:06;;;;;;;;;;;;;;;12.47;41.34;102718.31;10381076;28;20324;-73
2023/03/01 10:31:12;;;;;;;;;;;;;;;14.90;41.70;102713.13;10414652;28;19925;-72
2023/03/01 10:36:14;;;;;;;;;;;;;;;16.39;38.80;102705.94;10378984;28;19925;-73
2023/03/01 10:41:16;;;;;;;;;;;;;;;14.70;36.48;102699.03;10414385;28;19925;-72
2023/03/01 10:46:35;;;;;;;;;;;;;;;16.09;37.00;102706.56;10397657;28;19983;-72
2023/03/01 10:51:38;;;;;;;;;;;;;;;14.59;36.47;102707.44;10413928;28;19979;-72
2023/03/01 10:56:48;;;;;;;;;;;;;;;17.87;35.75;102699.69;10412637;28;19933;-72
2023/03/01 11:02:01;;;;;;;;;;;;;;;16.47;35.00;102703.72;10397117;28;19925;-72
2023/03/01 11:07:10;;;;;;;;;;;;;;;18.27;35.07;102702.66;10414045;28;19929;-72
2023/03/01 11:12:15;;;;;;;;;;;;;;;18.03;33.66;102703.16;10412814;28;19933;-72
2023/03/01 11:17:22;;;;;;;;;;;;;;;18.08;32.56;102695.78;10395634;28;19926;-70
2023/03/01 11:22:24;;;;;;;;;;;;;;;18.78;33.88;102694.25;10397133;28;19948;-70
2023/03/01 11:27:33;;;;;;;;;;;;;;;19.30;33.16;102693.66;10413715;28;19979;-70
2023/03/01 11:32:38;;;;;;;;;;;;;;;19.98;31.48;102681.25;10407202;28;20273;-71
2023/03/01 11:37:43;;;;;;;;;;;;;;;20.07;31.57;102682.41;10395298;28;19925;-71
2023/03/01 11:42:49;;;;;;;;;;;;;;;18.37;31.57;102685.22;10402043;28;19925;-71
2023/03/01 11:47:56;;;;;;;;;;;;;;;20.33;29.41;102670.00;10421643;28;19932;-71
2023/03/01 11:53:17;;;;;;;;;;;;;;;18.85;31.37;102661.97;10390708;28;19933;-71
2023/03/01 11:58:38;;;;;;;;;;;;;;;19.67;30.87;102659.34;10419947;28;19925;-70
2023/03/01 12:03:40;;;;;;;;;;;;;;;21.03;29.38;102645.53;10418406;28;20407;-71
2023/03/01 12:08:45;;;;;;;;;;;;;;;19.74;30.07;102657.97;10420916;28;19975;-71
2023/03/01 12:13:50;;;;;;;;;;;;;;;20.06;29.82;102656.81;10414945;23;19976;-68
2023/03/01 12:18:59;;;;;;;;;;;;;;;20.26;29.85;102652.75;10419503;28;20331;-67
2023/03/01 12:24:08;;;;;;;;;;;;;;;21.06;29.39;102639.97;10400595;28;20364;-68
2023/03/01 12:29:45;;;;;;;;;;;;;;;20.75;30.43;102631.53;10418144;28;19932;-68
2023/03/01 12:35:07;;;;;;;;;;;;;;;18.82;29.60;102638.25;10321171;28;19929;-68
2023/03/01 12:40:20;;;;;;;;;;;;;;;20.01;29.67;102628.72;10416038;28;19983;-68
2023/03/01 12:45:26;;;;;;;;;;;;;;;19.89;29.62;102618.06;10399115;28;19933;-68
2023/03/01 12:50:39;;;;;;;;;;;;;;;18.22;30.71;102623.38;10415790;28;20184;-68
2023/03/01 12:55:42;;;;;;;;;;;;;;;17.96;31.11;102604.63;10399115;28;19925;-67
2023/03/01 13:00:46;;;;;;;;;;;;;;;19.37;30.05;102596.69;10419160;28;19932;-68
2023/03/01 13:05:57;;;;;;;;;;;;;;;19.43;29.79;102596.28;10400845;28;20284;-67
2023/03/01 13:11:03;;;;;;;;;;;;;;;19.94;29.33;102574.28;10418625;28;19929;-68
2023/03/01 13:16:24;;;;;;;;;;;;;;;20.29;29.69;102559.44;10400223;28;20276;-68
2023/03/01 13:21:30;;;;;;;;;;;;;;;21.27;30.17;102567.44;10417789;28;19931;-67
2023/03/01 13:26:32;;;;;;;;;;;;;;;17.66;31.03;102566.69;10400075;28;20343;-67
2023/03/01 13:31:34;;;;;;;;;;;;;;;18.31;30.71;102559.19;10399691;28;20328;-67
2023/03/01 13:36:36;;;;;;;;;;;;;;;17.68;32.25;102554.19;10417231;28;19925;-67
2023/03/01 13:41:39;;;;;;;;;;;;;;;20.56;30.65;102530.00;10416950;28;20224;-67
2023/03/01 13:46:42;;;;;;;;;;;;;;;19.95;30.55;102524.59;10416780;28;19926;-67
2023/03/01 13:51:47;;;;;;;;;;;;;;;18.96;30.27;102519.75;10399615;28;19931;-67
2023/03/01 13:56:50;;;;;;;;;;;;;;;19.17;29.73;102513.03;10398297;28;19984;-67
2023/03/01 14:01:56;;;;;;;;;;;;;;;19.72;29.10;102497.81;10414457;28;19926;-67
2023/03/01 14:07:31;;;;;;;;;;;;;;;19.88;29.07;102502.06;10398218;28;19932;-67
2023/03/01 14:12:39;;;;;;;;;;;;;;;20.23;26.84;102494.25;10404251;28;19925;-67
2023/03/01 14:18:00;;;;;;;;;;;;;;;22.16;24.31;102483.25;10356371;28;19983;-67
2023/03/01 14:23:08;;;;;;;;;;;;;;;22.61;24.11;102485.88;10334294;28;20373;-67
2023/03/01 14:28:27;;;;;;;;;;;;;;;22.99;24.22;102468.47;10338196;28;19929;-67
2023/03/01 14:33:30;;;;;;;;;;;;;;;24.03;24.86;102465.84;10357050;28;19926;-67
2023/03/01 14:38:36;;;;;;;;;;;;;;;25.31;21.79;102445.34;10373866;28;19926;-67
2023/03/01 14:43:40;;;;;;;;;;;;;;;24.83;22.71;102442.56;10375126;28;19933;-67
2023/03/01 14:48:42;;;;;;;;;;;;;;;22.33;24.81;102436.56;10340871;28;20331;-67
2023/03/01 14:53:44;;;;;;;;;;;;;;;26.17;21.48;102418.25;10377757;28;19925;-67
2023/03/01 14:58:53;;;;;;;;;;;;;;;26.84;21.04;102423.25;10373022;28;20000;-67
2023/03/01 15:03:55;;;;;;;;;;;;;;;28.02;19.88;102420.88;10373895;28;20325;-67
2023/03/01 15:08:57;;;;;;;;;;;;;;;27.83;18.79;102415.78;10355756;28;20306;-67
2023/03/01 15:13:59;;;;;;;;;;;;;;;25.81;20.18;102420.84;10379790;28;20389;-67
2023/03/01 15:19:06;;;;;;;;;;;;;;;16.46;26.73;102435.03;10381617;28;20284;-67
2023/03/01 15:24:19;;;;;;;;;;;;;;;18.30;27.98;102432.03;10364729;28;19926;-67
2023/03/01 15:29:21;;;;;;;;;;;;;;;15.90;30.40;102428.44;10377506;28;20012;-66
2023/03/01 15:34:44;;;;;;;;;;;;;;;16.94;30.57;102423.53;10379750;28;20419;-65
2023/03/01 15:39:52;;;;;;;;;;;;;;;16.72;30.14;102424.75;10381444;28;19933;-66
2023/03/01 15:45:20;;;;;;;;;;;;;;;21.45;26.31;102423.97;10379383;28;19932;-66
2023/03/01 15:50:29;;;;;;;;;;;;;;;18.30;27.09;102419.63;10379175;28;19926;-66
2023/03/01 15:55:33;;;;;;;;;;;;;;;16.67;29.64;102427.66;10362239;28;19925;-66
2023/03/01 16:00:35;;;;;;;;;;;;;;;12.38;35.90;102425.31;10377775;28;20291;-66
2023/03/01 16:05:37;;;;;;;;;;;;;;;10.97;37.46;102408.47;10379776;28;19926;-65
2023/03/01 16:10:40;;;;;;;;;;;;;;;10.36;40.17;102406.91;10362932;28;19929;-65
2023/03/01 16:15:43;;;;;;;;;;;;;;;9.36;41.81;102411.50;10405502;28;20292;-65
2023/03/01 16:20:46;;;;;;;;;;;;;;;8.83;43.07;102406.75;10420597;28;19948;-65
2023/03/01 16:25:48;;;;;;;;;;;;;;;8.46;44.55;102413.69;10419384;28;19925;-64
2023/03/01 16:30:51;;;;;;;;;;;;;;;8.23;44.19;102408.94;10419752;28;19936;-64
2023/03/01 16:35:53;;;;;;;;;;;;;;;7.68;47.36;102423.13;10420133;28;19925;-64
2023/03/01 16:40:57;;;;;;;;;;;;;;;7.54;46.54;102416.41;10419274;28;20214;-64
2023/03/01 16:45:59;;;;;;;;;;;;;;;7.06;48.93;102401.66;10419031;28;20360;-64
2023/03/01 16:51:02;;;;;;;;;;;;;;;6.77;49.62;102404.72;10419612;28;19925;-64
2023/03/01 16:56:05;;;;;;;;;;;;;;;6.35;50.16;102417.47;10418651;28;20283;-64
2023/03/01 17:01:08;;;;;;;;;;;;;;;6.60;49.33;102411.94;10401582;28;19925;-64
2023/03/01 17:06:11;;;;;;;;;;;;;;;5.79;51.82;102422.47;10418478;28;20502;-64
2023/03/01 17:11:14;;;;;;;;;;;;;;;5.52;52.63;102416.69;10400636;28;20303;-63
2023/03/01 17:16:17;;;;;;;;;;;;;;;5.51;53.38;102414.97;10369600;28;19929;-64
2023/03/01 17:21:19;;;;;;;;;;;;;;;4.94;54.90;102417.22;10360166;28;19925;-63
2023/03/01 17:26:22;;;;;;;;;;;;;;;4.60;55.51;102409.69;10377342;28;19929;-63
2023/03/01 17:31:24;;;;;;;;;;;;;;;4.47;55.46;102421.88;10376480;28;19948;-63
2023/03/01 17:36:26;;;;;;;;;;;;;;;4.35;57.38;102429.72;10375992;28;19925;-64
2023/03/01 17:41:28;;;;;;;;;;;;;;;4.27;56.94;102430.63;10376615;28;19937;-63
2023/03/01 17:46:31;;;;;;;;;;;;;;;3.84;59.11;102435.13;10376090;28;20308;-63
2023/03/01 17:51:33;;;;;;;;;;;;;;;3.88;58.47;102435.13;10373641;28;19925;-63
2023/03/01 17:56:37;;;;;;;;;;;;;;;3.39;59.61;102444.72;10373080;28;19929;-63
2023/03/01 18:01:41;;;;;;;;;;;;;;;3.49;60.75;102434.31;10374168;28;19933;-63
2023/03/01 18:06:43;;;;;;;;;;;;;;;3.43;59.70;102436.06;10375856;28;19964;-63
2023/03/01 18:11:45;;;;;;;;;;;;;;;3.21;61.11;102438.69;10375766;28;19926;-63
2023/03/01 18:16:49;;;;;;;;;;;;;;;3.38;60.83;102449.03;10373078;28;19925;-63
2023/03/01 18:21:51;;;;;;;;;;;;;;;3.16;61.64;102432.63;10371489;28;19933;-63
2023/03/01 18:26:53;;;;;;;;;;;;;;;3.00;62.51;102438.69;10378079;28;19972;-63
2023/03/01 18:31:55;;;;;;;;;;;;;;;2.72;62.71;102433.47;10374506;28;19929;-63
2023/03/01 18:36:58;;;;;;;;;;;;;;;2.70;63.84;102430.03;10372986;28;19973;-63
2023/03/01 18:42:10;;;;;;;;;;;;;;;2.07;63.98;102429.84;10374069;28;19976;-62
2023/03/01 18:47:13;;;;;;;;;;;;;;;2.15;64.53;102428.16;10376427;28;19933;-62
2023/03/01 18:52:17;;;;;;;;;;;;;;;2.07;65.59;102435.88;10365819;28;20437;-63
2023/03/01 18:57:19;;;;;;;;;;;;;;;1.79;64.87;102425.41;10382304;28;19976;-63
2023/03/01 19:02:21;;;;;;;;;;;;;;;1.65;65.89;102427.91;10382657;28;19929;-63
2023/03/01 19:07:24;;;;;;;;;;;;;;;1.65;65.55;102425.34;10380794;28;19932;-62
2023/03/01 19:12:27;;;;;;;;;;;;;;;1.66;66.71;102432.25;10380386;28;19925;-63
2023/03/01 19:17:30;;;;;;;;;;;;;;;1.58;67.29;102439.06;10364605;28;19925;-62
2023/03/01 19:22:32;;;;;;;;;;;;;;;1.40;67.12;102429.47;10380405;28;19925;-63
2023/03/01 19:27:34;;;;;;;;;;;;;;;1.29;67.85;102428.53;10383104;28;19980;-63
2023/03/01 19:32:36;;;;;;;;;;;;;;;1.71;67.38;102434.81;10381081;28;19930;-62
2023/03/01 19:37:39;;;;;;;;;;;;;;;1.52;67.48;102433.88;10381525;28;19925;-62
2023/03/01 19:42:41;;;;;;;;;;;;;;;1.46;68.46;102445.03;10379988;28;19976;-62
2023/03/01 19:47:45;;;;;;;;;;;;;;;1.36;68.30;102443.22;10379849;28;20316;-62
2023/03/01 19:52:47;;;;;;;;;;;;;;;1.32;68.52;102443.19;10379682;28;20442;-62
2023/03/01 19:57:49;;;;;;;;;;;;;;;0.91;70.20;102442.84;10378106;28;19932;-62
2023/03/01 20:02:52;;;;;;;;;;;;;;;0.90;70.34;102453.16;10379343;28;19925;-62
2023/03/01 20:07:56;;;;;;;;;;;;;;;0.83;71.29;102446.22;10379679;28;20293;-62
2023/03/01 20:12:58;;;;;;;;;;;;;;;0.70;70.50;102440.91;10379854;28;19926;-62
2023/03/01 20:18:01;;;;;;;;;;;;;;;0.60;70.25;102441.69;10369627;28;19930;-62
2023/03/01 20:23:03;;;;;;;;;;;;;;;0.83;71.00;102436.75;10373176;28;20292;-62
2023/03/01 20:28:05;;;;;;;;;;;;;;;0.68;71.47;102427.16;10362209;28;19926;-62
2023/03/01 20:33:07;;;;;;;;;;;;;;;0.51;71.91;102439.03;10377693;28;20377;-62
2023/03/01 20:38:10;;;;;;;;;;;;;;;0.83;71.22;102434.19;10377534;28;19941;-62
2023/03/01 20:43:12;;;;;;;;;;;;;;;1.27;69.04;102427.66;10360609;28;19929;-62
2023/03/01 20:48:14;;;;;;;;;;;;;;;1.36;70.50;102429.44;10377081;28;19925;-62
2023/03/01 20:53:16;;;;;;;;;;;;;;;1.06;70.75;102426.66;10377154;28;19925;-62
2023/03/01 20:58:18;;;;;;;;;;;;;;;1.16;71.13;102416.38;10376198;28;20296;-62
2023/03/01 21:03:21;;;;;;;;;;;;;;;1.14;70.55;102416.38;10377561;28;19933;-62
2023/03/01 21:08:23;;;;;;;;;;;;;;;0.45;72.95;102424.34;10376536;28;19929;-62
2023/03/01 21:13:25;;;;;;;;;;;;;;;0.48;74.68;102434.69;10384351;28;19925;-62
2023/03/01 21:18:31;;;;;;;;;;;;;;;0.30;73.96;102427.63;10415513;28;20380;-62
2023/03/01 21:23:33;;;;;;;;;;;;;;;0.31;74.89;102437.06;10400021;28;19925;-62
2023/03/01 21:28:36;;;;;;;;;;;;;;;0.39;74.13;102433.72;10418138;28;19925;-62
2023/03/01 21:33:39;;;;;;;;;;;;;;;0.36;74.51;102427.69;10416511;28;19925;-62
2023/03/01 21:38:42;;;;;;;;;;;;;;;0.64;73.00;102420.25;10414703;28;19940;-62
2023/03/01 21:43:44;;;;;;;;;;;;;;;0.86;72.11;102417.88;10414532;28;19925;-62
2023/03/01 21:48:47;;;;;;;;;;;;;;;0.73;74.63;102420.34;10416756;28;20315;-62
2023/03/01 21:53:50;;;;;;;;;;;;;;;0.21;74.90;102421.50;10415679;28;19932;-62
2023/03/01 21:58:52;;;;;;;;;;;;;;;0.16;75.67;102408.56;10396165;28;19925;-63
2023/03/01 22:03:55;;;;;;;;;;;;;;;0.32;75.08;102413.06;10397717;28;20435;-62
2023/03/01 22:08:59;;;;;;;;;;;;;;;0.19;75.29;102408.59;10415978;28;20331;-62
2023/03/01 22:14:03;;;;;;;;;;;;;;;0.02;75.80;102412.66;10415878;28;19935;-62
2023/03/01 22:19:05;;;;;;;;;;;;;;;-0.04;75.51;102406.59;10414448;28;19926;-62
2023/03/01 22:24:08;;;;;;;;;;;;;;;-0.03;76.28;102402.34;10415848;28;19953;-62
2023/03/01 22:29:11;;;;;;;;;;;;;;;-0.18;76.37;102415.88;10397600;28;19925;-62
2023/03/01 22:34:15;;;;;;;;;;;;;;;-0.33;76.66;102410.53;10416193;28;19936;-62
2023/03/01 22:39:18;;;;;;;;;;;;;;;-0.19;77.55;102416.72;10396297;28;19925;-62
2023/03/01 22:44:21;;;;;;;;;;;;;;;-0.14;78.10;102416.78;10412827;28;20008;-62
2023/03/01 22:49:23;;;;;;;;;;;;;;;-0.44;78.62;102412.94;10415981;28;19925;-62
2023/03/01 22:54:26;;;;;;;;;;;;;;;-0.51;79.40;102414.56;10414250;28;19929;-62
2023/03/01 22:59:28;;;;;;;;;;;;;;;-0.47;79.52;102426.63;10396219;28;19933;-62
2023/03/01 23:04:30;;;;;;;;;;;;;;;-0.44;78.97;102431.84;10413135;28;19996;-62
2023/03/01 23:09:33;;;;;;;;;;;;;;;-0.62;79.33;102429.84;10397925;28;19932;-62
2023/03/01 23:14:35;;;;;;;;;;;;;;;-0.40;79.14;102443.03;10414809;28;19932;-62
2023/03/01 23:19:37;;;;;;;;;;;;;;;-0.67;78.99;102431.50;10393217;28;20446;-62
2023/03/01 23:24:39;;;;;;;;;;;;;;;-0.57;80.42;102435.06;10413105;28;19992;-63
2023/03/01 23:29:42;;;;;;;;;;;;;;;-0.63;81.66;102440.09;10414367;28;19925;-62
2023/03/01 23:34:45;;;;;;;;;;;;;;;-0.48;81.76;102427.47;10401351;28;19976;-62
2023/03/01 23:39:47;;;;;;;;;;;;;;;-1.02;82.27;102428.34;10419573;28;19925;-62
2023/03/01 23:44:49;;;;;;;;;;;;;;;-0.70;82.70;102425.44;10422069;28;19929;-62
2023/03/01 23:49:51;;;;;;;;;;;;;;;-0.62;81.14;102413.56;10403590;28;19975;-63
2023/03/01 23:54:53;;;;;;;;;;;;;;;-0.72;81.95;102414.22;10421049;28;19925;-62
2023/03/01 23:59:55;;;;;;;;;;;;;;;-0.94;81.99;102404.50;10402275;28;19925;-62
